sensor_id;sensor_type;location;lat;lon;timestamp;P1;durP1;ratioP1;P2;durP2;ratioP2
15198;SDS011;7700;48.654;9.070;2024-03-06T00:01:35;4.40;;;4.00;;
15198;SDS011;7700;48.654;9.070;2024-03-06T00:04:01;6.80;;;4.37;;
15198;SDS011;7700;48.654;9.070;2024-03-06T00:06:28;4.97;;;4.10;;
15198;SDS011;7700;48.654;9.070;2024-03-06T00:08:55;3.97;;;3.57;;
15198;SDS011;7700;48.654;9.070;2024-03-06T00:11:20;4.20;;;3.60;;
15198;SDS011;7700;48.654;9.070;2024-03-06T00:13:46;4.47;;;3.30;;
15198;SDS011;7700;48.654;9.070;2024-03-06T00:16:12;3.70;;;3.40;;
15198;SDS011;7700;48.654;9.070;2024-03-06T00:18:38;4.17;;;3.57;;
15198;SDS011;7700;48.654;9.070;2024-03-06T00:21:05;4.43;;;3.57;;
15198;SDS011;7700;48.654;9.070;2024-03-06T00:23:31;3.73;;;3.43;;
15198;SDS011;7700;48.654;9.070;2024-03-06T00:25:57;3.83;;;3.20;;
15198;SDS011;7700;48.654;9.070;2024-03-06T00:28:22;3.70;;;3.40;;
15198;SDS011;7700;48.654;9.070;2024-03-06T00:30:49;3.83;;;3.53;;
15198;SDS011;7700;48.654;9.070;2024-03-06T00:33:14;4.80;;;3.17;;
15198;SDS011;7700;48.654;9.070;2024-03-06T00:35:40;4.27;;;3.80;;
15198;SDS011;7700;48.654;9.070;2024-03-06T00:38:05;3.57;;;3.27;;
15198;SDS011;7700;48.654;9.070;2024-03-06T00:40:31;4.77;;;3.40;;
15198;SDS011;7700;48.654;9.070;2024-03-06T00:42:57;4.43;;;3.30;;
15198;SDS011;7700;48.654;9.070;2024-03-06T00:45:23;3.67;;;3.27;;
15198;SDS011;7700;48.654;9.070;2024-03-06T00:47:49;3.00;;;2.80;;
15198;SDS011;7700;48.654;9.070;2024-03-06T00:50:15;3.57;;;3.20;;
15198;SDS011;7700;48.654;9.070;2024-03-06T00:52:42;4.63;;;2.97;;
15198;SDS011;7700;48.654;9.070;2024-03-06T00:55:08;3.00;;;2.70;;
15198;SDS011;7700;48.654;9.070;2024-03-06T00:57:34;3.90;;;3.00;;
15198;SDS011;7700;48.654;9.070;2024-03-06T01:00:00;3.37;;;2.63;;
15198;SDS011;7700;48.654;9.070;2024-03-06T01:02:31;2.70;;;2.50;;
15198;SDS011;7700;48.654;9.070;2024-03-06T01:04:56;3.80;;;2.60;;
15198;SDS011;7700;48.654;9.070;2024-03-06T01:07:22;3.17;;;2.87;;
15198;SDS011;7700;48.654;9.070;2024-03-06T01:09:47;3.57;;;2.90;;
15198;SDS011;7700;48.654;9.070;2024-03-06T01:12:13;3.00;;;2.70;;
15198;SDS011;7700;48.654;9.070;2024-03-06T01:14:38;3.67;;;3.33;;
15198;SDS011;7700;48.654;9.070;2024-03-06T01:17:04;3.57;;;2.80;;
15198;SDS011;7700;48.654;9.070;2024-03-06T01:19:30;3.97;;;3.10;;
15198;SDS011;7700;48.654;9.070;2024-03-06T01:21:55;3.37;;;2.87;;
15198;SDS011;7700;48.654;9.070;2024-03-06T01:24:21;3.50;;;3.20;;
15198;SDS011;7700;48.654;9.070;2024-03-06T01:26:46;3.33;;;3.10;;
15198;SDS011;7700;48.654;9.070;2024-03-06T01:29:12;6.20;;;2.87;;
15198;SDS011;7700;48.654;9.070;2024-03-06T01:31:38;3.27;;;2.97;;
15198;SDS011;7700;48.654;9.070;2024-03-06T01:34:03;3.60;;;3.30;;
15198;SDS011;7700;48.654;9.070;2024-03-06T01:36:29;3.57;;;3.27;;
15198;SDS011;7700;48.654;9.070;2024-03-06T01:38:54;3.53;;;3.23;;
15198;SDS011;7700;48.654;9.070;2024-03-06T01:41:20;3.20;;;2.90;;
15198;SDS011;7700;48.654;9.070;2024-03-06T01:43:45;5.53;;;4.07;;
15198;SDS011;7700;48.654;9.070;2024-03-06T01:46:12;3.77;;;3.47;;
15198;SDS011;7700;48.654;9.070;2024-03-06T01:48:37;3.03;;;2.73;;
15198;SDS011;7700;48.654;9.070;2024-03-06T01:51:04;3.80;;;3.40;;
15198;SDS011;7700;48.654;9.070;2024-03-06T01:53:30;3.07;;;2.77;;
15198;SDS011;7700;48.654;9.070;2024-03-06T01:55:57;4.07;;;3.67;;
15198;SDS011;7700;48.654;9.070;2024-03-06T01:58:23;4.33;;;3.93;;
15198;SDS011;7700;48.654;9.070;2024-03-06T02:00:49;3.90;;;3.00;;
15198;SDS011;7700;48.654;9.070;2024-03-06T02:03:15;3.87;;;3.40;;
15198;SDS011;7700;48.654;9.070;2024-03-06T02:05:44;3.70;;;3.40;;
15198;SDS011;7700;48.654;9.070;2024-03-06T02:08:09;3.23;;;2.90;;
15198;SDS011;7700;48.654;9.070;2024-03-06T02:10:35;3.93;;;3.40;;
15198;SDS011;7700;48.654;9.070;2024-03-06T02:13:01;3.90;;;3.50;;
15198;SDS011;7700;48.654;9.070;2024-03-06T02:15:26;4.90;;;3.50;;
15198;SDS011;7700;48.654;9.070;2024-03-06T02:17:52;3.57;;;3.27;;
15198;SDS011;7700;48.654;9.070;2024-03-06T02:20:22;4.33;;;3.90;;
15198;SDS011;7700;48.654;9.070;2024-03-06T02:22:49;4.40;;;3.43;;
15198;SDS011;7700;48.654;9.070;2024-03-06T02:25:15;3.93;;;3.63;;
15198;SDS011;7700;48.654;9.070;2024-03-06T02:27:42;3.73;;;3.43;;
15198;SDS011;7700;48.654;9.070;2024-03-06T02:30:08;5.83;;;4.70;;
15198;SDS011;7700;48.654;9.070;2024-03-06T02:32:35;5.67;;;3.90;;
15198;SDS011;7700;48.654;9.070;2024-03-06T02:35:01;3.67;;;3.33;;
15198;SDS011;7700;48.654;9.070;2024-03-06T02:37:28;4.23;;;3.70;;
15198;SDS011;7700;48.654;9.070;2024-03-06T02:39:54;3.57;;;3.23;;
15198;SDS011;7700;48.654;9.070;2024-03-06T02:42:19;3.83;;;3.50;;
15198;SDS011;7700;48.654;9.070;2024-03-06T02:44:45;3.10;;;2.90;;
15198;SDS011;7700;48.654;9.070;2024-03-06T02:47:10;3.40;;;3.10;;
15198;SDS011;7700;48.654;9.070;2024-03-06T02:49:36;3.20;;;2.90;;
15198;SDS011;7700;48.654;9.070;2024-03-06T02:52:01;5.87;;;3.40;;
15198;SDS011;7700;48.654;9.070;2024-03-06T02:54:27;2.60;;;2.40;;
15198;SDS011;7700;48.654;9.070;2024-03-06T02:56:53;5.27;;;3.60;;
15198;SDS011;7700;48.654;9.070;2024-03-06T02:59:18;3.40;;;2.70;;
15198;SDS011;7700;48.654;9.070;2024-03-06T03:01:44;3.57;;;2.90;;
15198;SDS011;7700;48.654;9.070;2024-03-06T03:04:10;2.60;;;2.40;;
15198;SDS011;7700;48.654;9.070;2024-03-06T03:06:36;3.00;;;2.70;;
15198;SDS011;7700;48.654;9.070;2024-03-06T03:09:02;2.90;;;2.70;;
15198;SDS011;7700;48.654;9.070;2024-03-06T03:11:30;2.37;;;2.17;;
15198;SDS011;7700;48.654;9.070;2024-03-06T03:13:57;2.80;;;2.60;;
15198;SDS011;7700;48.654;9.070;2024-03-06T03:16:22;3.63;;;2.60;;
15198;SDS011;7700;48.654;9.070;2024-03-06T03:18:48;4.20;;;2.67;;
15198;SDS011;7700;48.654;9.070;2024-03-06T03:21:14;3.70;;;2.80;;
15198;SDS011;7700;48.654;9.070;2024-03-06T03:23:39;2.97;;;2.73;;
15198;SDS011;7700;48.654;9.070;2024-03-06T03:26:06;5.30;;;3.83;;
15198;SDS011;7700;48.654;9.070;2024-03-06T03:28:32;4.40;;;3.00;;
15198;SDS011;7700;48.654;9.070;2024-03-06T03:30:58;5.77;;;3.03;;
15198;SDS011;7700;48.654;9.070;2024-03-06T03:33:24;4.00;;;2.90;;
15198;SDS011;7700;48.654;9.070;2024-03-06T03:35:49;3.67;;;3.00;;
15198;SDS011;7700;48.654;9.070;2024-03-06T03:38:15;4.67;;;3.43;;
15198;SDS011;7700;48.654;9.070;2024-03-06T03:40:42;3.63;;;3.13;;
15198;SDS011;7700;48.654;9.070;2024-03-06T03:43:07;5.87;;;3.27;;
15198;SDS011;7700;48.654;9.070;2024-03-06T03:45:34;3.47;;;3.13;;
15198;SDS011;7700;48.654;9.070;2024-03-06T03:48:01;6.90;;;3.33;;
15198;SDS011;7700;48.654;9.070;2024-03-06T03:50:30;3.57;;;3.27;;
15198;SDS011;7700;48.654;9.070;2024-03-06T03:52:56;3.80;;;3.33;;
15198;SDS011;7700;48.654;9.070;2024-03-06T03:55:23;5.47;;;3.60;;
15198;SDS011;7700;48.654;9.070;2024-03-06T03:57:50;5.93;;;3.67;;
15198;SDS011;7700;48.654;9.070;2024-03-06T04:00:16;4.03;;;3.43;;
15198;SDS011;7700;48.654;9.070;2024-03-06T04:02:41;4.40;;;3.70;;
15198;SDS011;7700;48.654;9.070;2024-03-06T04:05:07;3.53;;;3.23;;
15198;SDS011;7700;48.654;9.070;2024-03-06T04:07:34;4.07;;;3.50;;
15198;SDS011;7700;48.654;9.070;2024-03-06T04:10:00;3.77;;;3.43;;
15198;SDS011;7700;48.654;9.070;2024-03-06T04:12:26;3.60;;;3.30;;
15198;SDS011;7700;48.654;9.070;2024-03-06T04:14:51;4.97;;;3.70;;
15198;SDS011;7700;48.654;9.070;2024-03-06T04:17:17;4.63;;;3.40;;
15198;SDS011;7700;48.654;9.070;2024-03-06T04:19:43;5.43;;;3.57;;
15198;SDS011;7700;48.654;9.070;2024-03-06T04:22:08;4.83;;;3.73;;
15198;SDS011;7700;48.654;9.070;2024-03-06T04:24:34;4.47;;;3.70;;
15198;SDS011;7700;48.654;9.070;2024-03-06T04:26:59;5.33;;;3.53;;
15198;SDS011;7700;48.654;9.070;2024-03-06T04:29:24;4.17;;;3.77;;
15198;SDS011;7700;48.654;9.070;2024-03-06T04:31:50;4.53;;;3.83;;
15198;SDS011;7700;48.654;9.070;2024-03-06T04:34:15;4.20;;;3.40;;
15198;SDS011;7700;48.654;9.070;2024-03-06T04:36:41;4.73;;;3.83;;
15198;SDS011;7700;48.654;9.070;2024-03-06T04:39:07;4.13;;;3.73;;
15198;SDS011;7700;48.654;9.070;2024-03-06T04:41:33;4.67;;;4.27;;
15198;SDS011;7700;48.654;9.070;2024-03-06T04:43:58;5.10;;;3.97;;
15198;SDS011;7700;48.654;9.070;2024-03-06T04:46:26;6.27;;;4.13;;
15198;SDS011;7700;48.654;9.070;2024-03-06T04:48:51;5.60;;;4.13;;
15198;SDS011;7700;48.654;9.070;2024-03-06T04:51:17;4.87;;;3.97;;
15198;SDS011;7700;48.654;9.070;2024-03-06T04:53:45;9.83;;;7.77;;
15198;SDS011;7700;48.654;9.070;2024-03-06T04:56:11;12.30;;;8.20;;
15198;SDS011;7700;48.654;9.070;2024-03-06T04:58:37;8.00;;;7.20;;
15198;SDS011;7700;48.654;9.070;2024-03-06T05:01:03;6.00;;;5.50;;
15198;SDS011;7700;48.654;9.070;2024-03-06T05:03:29;6.63;;;5.73;;
15198;SDS011;7700;48.654;9.070;2024-03-06T05:05:54;5.03;;;4.53;;
15198;SDS011;7700;48.654;9.070;2024-03-06T05:08:20;5.73;;;4.93;;
15198;SDS011;7700;48.654;9.070;2024-03-06T05:10:45;5.17;;;4.53;;
15198;SDS011;7700;48.654;9.070;2024-03-06T05:13:11;8.93;;;4.90;;
15198;SDS011;7700;48.654;9.070;2024-03-06T05:15:37;5.73;;;4.77;;
15198;SDS011;7700;48.654;9.070;2024-03-06T05:18:04;5.13;;;4.50;;
15198;SDS011;7700;48.654;9.070;2024-03-06T05:20:30;6.13;;;4.57;;
15198;SDS011;7700;48.654;9.070;2024-03-06T05:22:58;7.10;;;5.10;;
15198;SDS011;7700;48.654;9.070;2024-03-06T05:25:23;6.53;;;4.57;;
15198;SDS011;7700;48.654;9.070;2024-03-06T05:27:49;6.00;;;4.90;;
15198;SDS011;7700;48.654;9.070;2024-03-06T05:30:15;5.23;;;4.73;;
15198;SDS011;7700;48.654;9.070;2024-03-06T05:32:40;5.87;;;4.70;;
15198;SDS011;7700;48.654;9.070;2024-03-06T05:35:06;6.77;;;4.70;;
15198;SDS011;7700;48.654;9.070;2024-03-06T05:37:35;6.47;;;4.60;;
15198;SDS011;7700;48.654;9.070;2024-03-06T05:40:00;5.97;;;4.80;;
15198;SDS011;7700;48.654;9.070;2024-03-06T05:42:29;5.63;;;5.03;;
15198;SDS011;7700;48.654;9.070;2024-03-06T05:44:55;7.03;;;5.23;;
15198;SDS011;7700;48.654;9.070;2024-03-06T05:47:25;6.13;;;5.00;;
15198;SDS011;7700;48.654;9.070;2024-03-06T05:49:51;5.80;;;5.20;;
15198;SDS011;7700;48.654;9.070;2024-03-06T05:52:17;8.00;;;5.77;;
15198;SDS011;7700;48.654;9.070;2024-03-06T05:54:43;5.97;;;5.47;;
15198;SDS011;7700;48.654;9.070;2024-03-06T05:57:08;5.83;;;5.30;;
15198;SDS011;7700;48.654;9.070;2024-03-06T05:59:34;7.23;;;5.17;;
15198;SDS011;7700;48.654;9.070;2024-03-06T06:02:00;5.80;;;5.13;;
15198;SDS011;7700;48.654;9.070;2024-03-06T06:04:25;7.70;;;5.90;;
15198;SDS011;7700;48.654;9.070;2024-03-06T06:06:51;7.13;;;5.43;;
15198;SDS011;7700;48.654;9.070;2024-03-06T06:09:17;9.60;;;5.70;;
15198;SDS011;7700;48.654;9.070;2024-03-06T06:11:43;8.27;;;5.47;;
15198;SDS011;7700;48.654;9.070;2024-03-06T06:14:09;6.00;;;5.40;;
15198;SDS011;7700;48.654;9.070;2024-03-06T06:16:38;8.70;;;6.47;;
15198;SDS011;7700;48.654;9.070;2024-03-06T06:19:05;7.07;;;6.43;;
15198;SDS011;7700;48.654;9.070;2024-03-06T06:21:31;7.13;;;5.90;;
15198;SDS011;7700;48.654;9.070;2024-03-06T06:23:57;9.00;;;6.97;;
15198;SDS011;7700;48.654;9.070;2024-03-06T06:26:23;9.10;;;7.67;;
15198;SDS011;7700;48.654;9.070;2024-03-06T06:28:49;8.27;;;7.30;;
15198;SDS011;7700;48.654;9.070;2024-03-06T06:31:14;7.63;;;6.83;;
15198;SDS011;7700;48.654;9.070;2024-03-06T06:33:40;8.00;;;6.70;;
15198;SDS011;7700;48.654;9.070;2024-03-06T06:36:06;7.73;;;7.03;;
15198;SDS011;7700;48.654;9.070;2024-03-06T06:38:31;8.57;;;7.67;;
15198;SDS011;7700;48.654;9.070;2024-03-06T06:40:57;9.03;;;8.23;;
15198;SDS011;7700;48.654;9.070;2024-03-06T06:43:22;10.23;;;8.43;;
15198;SDS011;7700;48.654;9.070;2024-03-06T06:45:48;7.40;;;6.70;;
15198;SDS011;7700;48.654;9.070;2024-03-06T06:48:13;9.70;;;7.47;;
15198;SDS011;7700;48.654;9.070;2024-03-06T06:50:39;9.90;;;7.80;;
15198;SDS011;7700;48.654;9.070;2024-03-06T06:53:05;8.73;;;7.90;;
15198;SDS011;7700;48.654;9.070;2024-03-06T06:55:30;7.67;;;6.73;;
15198;SDS011;7700;48.654;9.070;2024-03-06T06:57:56;7.60;;;6.90;;
15198;SDS011;7700;48.654;9.070;2024-03-06T07:00:22;7.50;;;6.20;;
15198;SDS011;7700;48.654;9.070;2024-03-06T07:02:48;7.50;;;6.60;;
15198;SDS011;7700;48.654;9.070;2024-03-06T07:05:14;7.50;;;5.47;;
15198;SDS011;7700;48.654;9.070;2024-03-06T07:07:39;8.00;;;5.87;;
15198;SDS011;7700;48.654;9.070;2024-03-06T07:10:05;6.70;;;6.10;;
15198;SDS011;7700;48.654;9.070;2024-03-06T07:12:31;6.33;;;5.73;;
15198;SDS011;7700;48.654;9.070;2024-03-06T07:14:57;5.90;;;5.30;;
15198;SDS011;7700;48.654;9.070;2024-03-06T07:17:23;6.73;;;5.63;;
15198;SDS011;7700;48.654;9.070;2024-03-06T07:19:49;7.10;;;5.53;;
15198;SDS011;7700;48.654;9.070;2024-03-06T07:22:15;6.00;;;5.17;;
15198;SDS011;7700;48.654;9.070;2024-03-06T07:24:42;8.13;;;5.47;;
15198;SDS011;7700;48.654;9.070;2024-03-06T07:27:07;7.50;;;5.10;;
15198;SDS011;7700;48.654;9.070;2024-03-06T07:29:36;6.20;;;5.03;;
15198;SDS011;7700;48.654;9.070;2024-03-06T07:32:01;8.00;;;5.33;;
15198;SDS011;7700;48.654;9.070;2024-03-06T07:34:27;5.97;;;4.93;;
15198;SDS011;7700;48.654;9.070;2024-03-06T07:36:53;5.40;;;4.57;;
15198;SDS011;7700;48.654;9.070;2024-03-06T07:39:19;5.10;;;4.60;;
15198;SDS011;7700;48.654;9.070;2024-03-06T07:41:45;6.33;;;4.93;;
15198;SDS011;7700;48.654;9.070;2024-03-06T07:44:10;7.23;;;5.87;;
15198;SDS011;7700;48.654;9.070;2024-03-06T07:46:36;6.73;;;5.80;;
15198;SDS011;7700;48.654;9.070;2024-03-06T07:49:02;7.30;;;5.57;;
15198;SDS011;7700;48.654;9.070;2024-03-06T07:51:30;9.77;;;6.67;;
15198;SDS011;7700;48.654;9.070;2024-03-06T07:54:00;7.10;;;6.17;;
15198;SDS011;7700;48.654;9.070;2024-03-06T07:56:26;7.33;;;5.87;;
15198;SDS011;7700;48.654;9.070;2024-03-06T07:58:53;7.40;;;6.33;;
15198;SDS011;7700;48.654;9.070;2024-03-06T08:01:19;7.50;;;5.73;;
15198;SDS011;7700;48.654;9.070;2024-03-06T08:03:45;6.30;;;5.70;;
15198;SDS011;7700;48.654;9.070;2024-03-06T08:06:11;7.00;;;6.07;;
15198;SDS011;7700;48.654;9.070;2024-03-06T08:08:40;6.00;;;5.03;;
15198;SDS011;7700;48.654;9.070;2024-03-06T08:11:06;7.27;;;5.57;;
15198;SDS011;7700;48.654;9.070;2024-03-06T08:13:32;6.53;;;5.93;;
15198;SDS011;7700;48.654;9.070;2024-03-06T08:15:57;6.47;;;5.87;;
15198;SDS011;7700;48.654;9.070;2024-03-06T08:18:23;6.57;;;5.87;;
15198;SDS011;7700;48.654;9.070;2024-03-06T08:20:48;6.70;;;6.10;;
15198;SDS011;7700;48.654;9.070;2024-03-06T08:23:14;6.73;;;5.40;;
15198;SDS011;7700;48.654;9.070;2024-03-06T08:25:39;5.57;;;5.07;;
15198;SDS011;7700;48.654;9.070;2024-03-06T08:28:05;5.20;;;4.70;;
15198;SDS011;7700;48.654;9.070;2024-03-06T08:30:31;5.77;;;4.77;;
15198;SDS011;7700;48.654;9.070;2024-03-06T08:32:57;6.33;;;5.73;;
15198;SDS011;7700;48.654;9.070;2024-03-06T08:35:23;6.10;;;4.93;;
15198;SDS011;7700;48.654;9.070;2024-03-06T08:37:49;7.80;;;5.23;;
15198;SDS011;7700;48.654;9.070;2024-03-06T08:40:15;6.73;;;5.07;;
15198;SDS011;7700;48.654;9.070;2024-03-06T08:42:45;6.57;;;5.53;;
15198;SDS011;7700;48.654;9.070;2024-03-06T08:45:14;8.17;;;5.30;;
15198;SDS011;7700;48.654;9.070;2024-03-06T08:47:44;6.70;;;4.83;;
15198;SDS011;7700;48.654;9.070;2024-03-06T08:50:10;6.17;;;5.00;;
15198;SDS011;7700;48.654;9.070;2024-03-06T08:52:37;6.50;;;5.90;;
15198;SDS011;7700;48.654;9.070;2024-03-06T08:55:03;8.33;;;5.47;;
15198;SDS011;7700;48.654;9.070;2024-03-06T08:57:29;7.07;;;5.20;;
15198;SDS011;7700;48.654;9.070;2024-03-06T08:59:56;5.73;;;5.03;;
15198;SDS011;7700;48.654;9.070;2024-03-06T09:02:22;6.97;;;6.27;;
15198;SDS011;7700;48.654;9.070;2024-03-06T09:04:47;8.33;;;7.53;;
15198;SDS011;7700;48.654;9.070;2024-03-06T09:07:13;8.53;;;7.83;;
15198;SDS011;7700;48.654;9.070;2024-03-06T09:09:39;6.47;;;5.83;;
15198;SDS011;7700;48.654;9.070;2024-03-06T09:12:06;5.43;;;4.97;;
15198;SDS011;7700;48.654;9.070;2024-03-06T09:14:35;8.27;;;5.20;;
15198;SDS011;7700;48.654;9.070;2024-03-06T09:17:01;5.30;;;4.80;;
15198;SDS011;7700;48.654;9.070;2024-03-06T09:19:28;5.97;;;5.07;;
15198;SDS011;7700;48.654;9.070;2024-03-06T09:21:53;7.07;;;6.10;;
15198;SDS011;7700;48.654;9.070;2024-03-06T09:24:22;6.40;;;5.77;;
15198;SDS011;7700;48.654;9.070;2024-03-06T09:26:49;5.60;;;5.10;;
15198;SDS011;7700;48.654;9.070;2024-03-06T09:29:15;6.37;;;5.60;;
15198;SDS011;7700;48.654;9.070;2024-03-06T09:31:41;5.07;;;4.67;;
15198;SDS011;7700;48.654;9.070;2024-03-06T09:34:07;5.43;;;4.93;;
15198;SDS011;7700;48.654;9.070;2024-03-06T09:36:36;5.60;;;4.83;;
15198;SDS011;7700;48.654;9.070;2024-03-06T09:39:02;5.80;;;5.20;;
15198;SDS011;7700;48.654;9.070;2024-03-06T09:41:29;5.70;;;4.90;;
15198;SDS011;7700;48.654;9.070;2024-03-06T09:43:55;6.60;;;5.97;;
15198;SDS011;7700;48.654;9.070;2024-03-06T09:46:21;7.00;;;6.23;;
15198;SDS011;7700;48.654;9.070;2024-03-06T09:48:47;6.97;;;6.27;;
15198;SDS011;7700;48.654;9.070;2024-03-06T09:51:14;9.20;;;6.73;;
15198;SDS011;7700;48.654;9.070;2024-03-06T09:53:41;6.67;;;6.07;;
15198;SDS011;7700;48.654;9.070;2024-03-06T09:56:08;6.77;;;6.17;;
15198;SDS011;7700;48.654;9.070;2024-03-06T09:58:37;7.03;;;6.33;;
15198;SDS011;7700;48.654;9.070;2024-03-06T10:03:30;7.20;;;5.97;;
15198;SDS011;7700;48.654;9.070;2024-03-06T10:05:55;8.07;;;7.27;;
15198;SDS011;7700;48.654;9.070;2024-03-06T10:08:21;7.67;;;6.87;;
15198;SDS011;7700;48.654;9.070;2024-03-06T10:10:48;7.50;;;6.33;;
15198;SDS011;7700;48.654;9.070;2024-03-06T10:13:16;6.70;;;6.10;;
15198;SDS011;7700;48.654;9.070;2024-03-06T10:15:42;7.43;;;6.73;;
15198;SDS011;7700;48.654;9.070;2024-03-06T10:18:28;8.70;;;6.83;;
15198;SDS011;7700;48.654;9.070;2024-03-06T10:20:55;8.40;;;7.70;;
15198;SDS011;7700;48.654;9.070;2024-03-06T10:23:21;8.63;;;7.73;;
15198;SDS011;7700;48.654;9.070;2024-03-06T10:25:48;8.83;;;7.30;;
15198;SDS011;7700;48.654;9.070;2024-03-06T10:28:20;8.13;;;7.33;;
15198;SDS011;7700;48.654;9.070;2024-03-06T10:30:50;10.43;;;8.57;;
15198;SDS011;7700;48.654;9.070;2024-03-06T10:33:17;9.30;;;8.50;;
15198;SDS011;7700;48.654;9.070;2024-03-06T10:35:44;10.27;;;8.57;;
15198;SDS011;7700;48.654;9.070;2024-03-06T10:38:11;9.60;;;7.80;;
15198;SDS011;7700;48.654;9.070;2024-03-06T10:40:38;8.87;;;8.07;;
15198;SDS011;7700;48.654;9.070;2024-03-06T10:43:05;9.67;;;8.77;;
15198;SDS011;7700;48.654;9.070;2024-03-06T10:48:05;11.63;;;10.43;;
15198;SDS011;7700;48.654;9.070;2024-03-06T10:50:32;12.67;;;11.37;;
15198;SDS011;7700;48.654;9.070;2024-03-06T10:53:00;12.33;;;11.07;;
15198;SDS011;7700;48.654;9.070;2024-03-06T10:55:27;11.67;;;10.57;;
15198;SDS011;7700;48.654;9.070;2024-03-06T10:57:54;11.10;;;10.10;;
15198;SDS011;7700;48.654;9.070;2024-03-06T11:00:22;10.80;;;9.70;;
15198;SDS011;7700;48.654;9.070;2024-03-06T11:02:48;10.80;;;9.70;;
15198;SDS011;7700;48.654;9.070;2024-03-06T11:05:16;11.20;;;9.67;;
15198;SDS011;7700;48.654;9.070;2024-03-06T11:07:42;9.87;;;9.07;;
15198;SDS011;7700;48.654;9.070;2024-03-06T11:10:08;10.20;;;9.27;;
15198;SDS011;7700;48.654;9.070;2024-03-06T11:12:41;11.23;;;10.20;;
15198;SDS011;7700;48.654;9.070;2024-03-06T11:15:12;10.73;;;9.77;;
15198;SDS011;7700;48.654;9.070;2024-03-06T11:17:39;11.50;;;10.27;;
15198;SDS011;7700;48.654;9.070;2024-03-06T11:28:10;12.20;;;11.00;;
15198;SDS011;7700;48.654;9.070;2024-03-06T11:30:44;25.53;;;20.33;;
15198;SDS011;7700;48.654;9.070;2024-03-06T11:33:15;25.87;;;21.20;;
15198;SDS011;7700;48.654;9.070;2024-03-06T11:35:41;16.70;;;14.77;;
15198;SDS011;7700;48.654;9.070;2024-03-06T11:38:09;22.33;;;19.93;;
15198;SDS011;7700;48.654;9.070;2024-03-06T11:40:42;15.77;;;14.17;;
15198;SDS011;7700;48.654;9.070;2024-03-06T11:43:22;16.73;;;14.90;;
15198;SDS011;7700;48.654;9.070;2024-03-06T11:45:49;15.10;;;13.57;;
15198;SDS011;7700;48.654;9.070;2024-03-06T11:48:14;16.27;;;14.67;;
15198;SDS011;7700;48.654;9.070;2024-03-06T11:50:44;16.87;;;15.23;;
15198;SDS011;7700;48.654;9.070;2024-03-06T11:53:10;14.00;;;12.57;;
15198;SDS011;7700;48.654;9.070;2024-03-06T11:55:36;16.00;;;14.40;;
15198;SDS011;7700;48.654;9.070;2024-03-06T11:58:01;16.13;;;14.50;;
15198;SDS011;7700;48.654;9.070;2024-03-06T12:00:29;16.90;;;15.00;;
15198;SDS011;7700;48.654;9.070;2024-03-06T12:02:55;15.63;;;14.13;;
15198;SDS011;7700;48.654;9.070;2024-03-06T12:05:22;17.20;;;15.40;;
15198;SDS011;7700;48.654;9.070;2024-03-06T12:07:49;17.83;;;16.03;;
15198;SDS011;7700;48.654;9.070;2024-03-06T12:10:15;16.67;;;14.97;;
15198;SDS011;7700;48.654;9.070;2024-03-06T12:12:42;17.70;;;15.90;;
15198;SDS011;7700;48.654;9.070;2024-03-06T12:15:11;19.27;;;17.37;;
15198;SDS011;7700;48.654;9.070;2024-03-06T12:17:46;18.37;;;15.87;;
15198;SDS011;7700;48.654;9.070;2024-03-06T12:20:17;19.53;;;17.07;;
15198;SDS011;7700;48.654;9.070;2024-03-06T12:22:50;18.60;;;16.70;;
15198;SDS011;7700;48.654;9.070;2024-03-06T12:27:49;15.73;;;14.10;;
15198;SDS011;7700;48.654;9.070;2024-03-06T12:30:22;16.97;;;15.17;;
15198;SDS011;7700;48.654;9.070;2024-03-06T12:35:26;20.27;;;17.90;;
15198;SDS011;7700;48.654;9.070;2024-03-06T12:37:52;17.13;;;15.40;;
15198;SDS011;7700;48.654;9.070;2024-03-06T12:40:18;17.47;;;15.77;;
15198;SDS011;7700;48.654;9.070;2024-03-06T12:42:44;17.13;;;15.17;;
15198;SDS011;7700;48.654;9.070;2024-03-06T12:45:11;17.57;;;15.87;;
15198;SDS011;7700;48.654;9.070;2024-03-06T12:47:40;18.40;;;16.60;;
15198;SDS011;7700;48.654;9.070;2024-03-06T12:50:07;17.17;;;15.47;;
15198;SDS011;7700;48.654;9.070;2024-03-06T12:52:33;17.13;;;15.43;;
15198;SDS011;7700;48.654;9.070;2024-03-06T12:54:59;17.47;;;15.63;;
15198;SDS011;7700;48.654;9.070;2024-03-06T12:57:25;18.80;;;16.90;;
15198;SDS011;7700;48.654;9.070;2024-03-06T12:59:52;16.67;;;14.93;;
15198;SDS011;7700;48.654;9.070;2024-03-06T13:02:18;16.17;;;14.57;;
15198;SDS011;7700;48.654;9.070;2024-03-06T13:04:44;19.07;;;14.63;;
15198;SDS011;7700;48.654;9.070;2024-03-06T13:07:09;16.30;;;14.70;;
15198;SDS011;7700;48.654;9.070;2024-03-06T13:09:36;14.67;;;13.27;;
15198;SDS011;7700;48.654;9.070;2024-03-06T13:12:01;16.87;;;15.17;;
15198;SDS011;7700;48.654;9.070;2024-03-06T13:14:27;18.43;;;16.53;;
15198;SDS011;7700;48.654;9.070;2024-03-06T13:16:52;18.47;;;16.57;;
15198;SDS011;7700;48.654;9.070;2024-03-06T13:19:18;18.20;;;16.23;;
15198;SDS011;7700;48.654;9.070;2024-03-06T13:21:44;17.53;;;15.73;;
15198;SDS011;7700;48.654;9.070;2024-03-06T13:24:09;18.97;;;16.10;;
15198;SDS011;7700;48.654;9.070;2024-03-06T13:26:35;16.83;;;15.13;;
15198;SDS011;7700;48.654;9.070;2024-03-06T13:29:02;18.27;;;16.37;;
15198;SDS011;7700;48.654;9.070;2024-03-06T13:31:28;17.77;;;15.97;;
15198;SDS011;7700;48.654;9.070;2024-03-06T13:33:55;17.20;;;15.40;;
15198;SDS011;7700;48.654;9.070;2024-03-06T13:36:20;16.93;;;15.23;;
15198;SDS011;7700;48.654;9.070;2024-03-06T13:38:47;17.23;;;15.43;;
15198;SDS011;7700;48.654;9.070;2024-03-06T13:41:12;19.23;;;17.10;;
15198;SDS011;7700;48.654;9.070;2024-03-06T13:43:38;15.93;;;14.37;;
15198;SDS011;7700;48.654;9.070;2024-03-06T13:46:03;16.10;;;14.57;;
15198;SDS011;7700;48.654;9.070;2024-03-06T13:48:29;17.40;;;15.60;;
15198;SDS011;7700;48.654;9.070;2024-03-06T13:50:55;16.20;;;14.60;;
15198;SDS011;7700;48.654;9.070;2024-03-06T13:53:20;16.53;;;14.77;;
15198;SDS011;7700;48.654;9.070;2024-03-06T13:55:46;17.00;;;15.33;;
15198;SDS011;7700;48.654;9.070;2024-03-06T13:58:11;18.03;;;16.13;;
15198;SDS011;7700;48.654;9.070;2024-03-06T14:00:37;16.57;;;14.87;;
15198;SDS011;7700;48.654;9.070;2024-03-06T14:03:02;17.80;;;16.00;;
15198;SDS011;7700;48.654;9.070;2024-03-06T14:05:28;17.53;;;15.50;;
15198;SDS011;7700;48.654;9.070;2024-03-06T14:07:55;16.27;;;14.60;;
15198;SDS011;7700;48.654;9.070;2024-03-06T14:10:21;16.33;;;14.73;;
15198;SDS011;7700;48.654;9.070;2024-03-06T14:12:47;16.87;;;15.20;;
15198;SDS011;7700;48.654;9.070;2024-03-06T14:15:16;17.40;;;15.60;;
15198;SDS011;7700;48.654;9.070;2024-03-06T14:17:44;17.63;;;15.87;;
15198;SDS011;7700;48.654;9.070;2024-03-06T14:20:10;17.20;;;15.40;;
15198;SDS011;7700;48.654;9.070;2024-03-06T14:22:37;17.60;;;15.90;;
15198;SDS011;7700;48.654;9.070;2024-03-06T14:25:03;17.97;;;16.27;;
15198;SDS011;7700;48.654;9.070;2024-03-06T14:27:29;15.87;;;14.33;;
15198;SDS011;7700;48.654;9.070;2024-03-06T14:29:55;17.20;;;15.53;;
15198;SDS011;7700;48.654;9.070;2024-03-06T14:32:21;16.17;;;14.47;;
15198;SDS011;7700;48.654;9.070;2024-03-06T14:34:46;16.80;;;15.17;;
15198;SDS011;7700;48.654;9.070;2024-03-06T14:37:12;17.40;;;15.47;;
15198;SDS011;7700;48.654;9.070;2024-03-06T14:39:37;16.97;;;15.17;;
15198;SDS011;7700;48.654;9.070;2024-03-06T14:42:03;16.90;;;15.20;;
15198;SDS011;7700;48.654;9.070;2024-03-06T14:44:29;17.13;;;15.53;;
15198;SDS011;7700;48.654;9.070;2024-03-06T14:46:56;18.97;;;17.17;;
15198;SDS011;7700;48.654;9.070;2024-03-06T14:49:21;18.10;;;16.20;;
15198;SDS011;7700;48.654;9.070;2024-03-06T14:51:47;19.40;;;17.50;;
15198;SDS011;7700;48.654;9.070;2024-03-06T14:54:12;18.73;;;16.83;;
15198;SDS011;7700;48.654;9.070;2024-03-06T14:56:38;19.67;;;17.57;;
15198;SDS011;7700;48.654;9.070;2024-03-06T14:59:05;19.17;;;17.13;;
15198;SDS011;7700;48.654;9.070;2024-03-06T15:01:31;18.60;;;16.83;;
15198;SDS011;7700;48.654;9.070;2024-03-06T15:03:56;17.83;;;16.13;;
15198;SDS011;7700;48.654;9.070;2024-03-06T15:06:23;18.33;;;16.43;;